sensor_id;sensor_type;location;lat;lon;timestamp;pressure;altitude;pressure_sealevel;temperature;humidity
78016;BME280;67223;51.102;5.882;2023-05-10T00:01:21;100751.22;;;13.39;91.39
78016;BME280;67223;51.102;5.882;2023-05-10T00:03:46;100753.34;;;13.25;91.57
78016;BME280;67223;51.102;5.882;2023-05-10T00:06:12;100744.03;;;13.39;91.29
78016;BME280;67223;51.102;5.882;2023-05-10T00:08:37;100747.41;;;13.31;91.05
78016;BME280;67223;51.102;5.882;2023-05-10T00:11:03;100753.56;;;13.51;91.42
78016;BME280;67223;51.102;5.882;2023-05-10T00:13:28;100745.41;;;13.53;91.25
78016;BME280;67223;51.102;5.882;2023-05-10T00:15:54;100747.53;;;13.49;91.65
78016;BME280;67223;51.102;5.882;2023-05-10T00:18:19;100751.06;;;13.50;91.42
78016;BME280;67223;51.102;5.882;2023-05-10T00:20:45;100747.41;;;13.31;91.54
78016;BME280;67223;51.102;5.882;2023-05-10T00:23:11;100745.16;;;13.36;90.96
78016;BME280;67223;51.102;5.882;2023-05-10T00:25:37;100743.47;;;13.26;91.34
78016;BME280;67223;51.102;5.882;2023-05-10T00:28:03;100740.78;;;13.07;92.04
78016;BME280;67223;51.102;5.882;2023-05-10T00:30:28;100741.78;;;13.34;91.80
78016;BME280;67223;51.102;5.882;2023-05-10T00:32:54;100735.75;;;13.13;91.92
78016;BME280;67223;51.102;5.882;2023-05-10T00:35:19;100739.53;;;13.20;91.76
78016;BME280;67223;51.102;5.882;2023-05-10T00:37:47;100750.94;;;13.32;91.71
78016;BME280;67223;51.102;5.882;2023-05-10T00:40:12;100750.97;;;13.22;91.74
78016;BME280;67223;51.102;5.882;2023-05-10T00:42:38;100748.41;;;13.30;91.78
78016;BME280;67223;51.102;5.882;2023-05-10T00:45:04;100747.84;;;13.08;92.11
78016;BME280;67223;51.102;5.882;2023-05-10T00:47:30;100749.38;;;13.10;91.75
78016;BME280;67223;51.102;5.882;2023-05-10T00:49:56;100744.75;;;13.03;92.16
78016;BME280;67223;51.102;5.882;2023-05-10T00:52:22;100757.19;;;13.04;92.39
78016;BME280;67223;51.102;5.882;2023-05-10T00:54:50;100755.19;;;13.15;91.76
78016;BME280;67223;51.102;5.882;2023-05-10T00:57:17;100751.50;;;13.35;91.68
78016;BME280;67223;51.102;5.882;2023-05-10T00:59:42;100754.94;;;13.18;91.92
78016;BME280;67223;51.102;5.882;2023-05-10T01:02:08;100747.31;;;13.04;92.12
78016;BME280;67223;51.102;5.882;2023-05-10T01:04:34;100748.41;;;13.21;91.85
78016;BME280;67223;51.102;5.882;2023-05-10T01:07:00;100746.31;;;13.24;91.79
78016;BME280;67223;51.102;5.882;2023-05-10T01:09:28;100746.88;;;13.18;91.92
78016;BME280;67223;51.102;5.882;2023-05-10T01:11:54;100746.88;;;13.28;91.80
78016;BME280;67223;51.102;5.882;2023-05-10T01:14:20;100744.06;;;13.29;91.74
78016;BME280;67223;51.102;5.882;2023-05-10T01:16:48;100739.09;;;13.34;91.54
78016;BME280;67223;51.102;5.882;2023-05-10T01:19:24;100743.63;;;13.34;91.25
78016;BME280;67223;51.102;5.882;2023-05-10T01:22:50;100751.09;;;13.21;91.73
78016;BME280;67223;51.102;5.882;2023-05-10T01:34:16;100741.66;;;13.07;91.84
78016;BME280;67223;51.102;5.882;2023-05-10T01:39:02;100739.13;;;13.25;91.98
78016;BME280;67223;51.102;5.882;2023-05-10T01:41:54;100735.53;;;13.44;92.12
78016;BME280;67223;51.102;5.882;2023-05-10T01:44:37;100739.50;;;13.40;91.44
78016;BME280;67223;51.102;5.882;2023-05-10T01:47:12;100740.97;;;13.15;92.12
78016;BME280;67223;51.102;5.882;2023-05-10T01:49:43;100737.53;;;13.32;91.86
78016;BME280;67223;51.102;5.882;2023-05-10T01:52:12;100744.47;;;13.34;91.99
78016;BME280;67223;51.102;5.882;2023-05-10T01:54:43;100745.16;;;13.27;91.98
78016;BME280;67223;51.102;5.882;2023-05-10T01:57:13;100744.28;;;13.36;91.87
78016;BME280;67223;51.102;5.882;2023-05-10T01:59:43;100737.94;;;13.37;92.21
78016;BME280;67223;51.102;5.882;2023-05-10T02:02:10;100738.91;;;13.46;91.83
78016;BME280;67223;51.102;5.882;2023-05-10T02:04:38;100745.03;;;13.28;91.78
78016;BME280;67223;51.102;5.882;2023-05-10T02:07:06;100740.31;;;13.40;91.67
78016;BME280;67223;51.102;5.882;2023-05-10T02:09:33;100744.50;;;13.25;91.79
78016;BME280;67223;51.102;5.882;2023-05-10T02:12:01;100745.72;;;13.30;91.52
78016;BME280;67223;51.102;5.882;2023-05-10T02:14:30;100750.00;;;13.23;91.58
78016;BME280;67223;51.102;5.882;2023-05-10T02:16:58;100747.13;;;13.44;91.17
78016;BME280;67223;51.102;5.882;2023-05-10T02:19:26;100763.25;;;13.34;91.23
78016;BME280;67223;51.102;5.882;2023-05-10T02:21:55;100753.63;;;13.32;91.29
78016;BME280;67223;51.102;5.882;2023-05-10T02:24:22;100753.06;;;13.38;91.92
78016;BME280;67223;51.102;5.882;2023-05-10T02:26:51;100756.03;;;13.45;91.76
78016;BME280;67223;51.102;5.882;2023-05-10T02:29:19;100757.75;;;13.17;91.57
78016;BME280;67223;51.102;5.882;2023-05-10T02:31:45;100761.38;;;13.35;91.25
78016;BME280;67223;51.102;5.882;2023-05-10T02:34:12;100755.75;;;13.28;91.31
78016;BME280;67223;51.102;5.882;2023-05-10T02:36:39;100763.94;;;13.36;90.95
78016;BME280;67223;51.102;5.882;2023-05-10T02:39:06;100767.88;;;13.42;91.64
78016;BME280;67223;51.102;5.882;2023-05-10T02:41:39;100765.19;;;13.42;91.31
78016;BME280;67223;51.102;5.882;2023-05-10T02:44:07;100764.91;;;13.35;91.19
78016;BME280;67223;51.102;5.882;2023-05-10T02:46:35;100769.03;;;13.40;90.80
78016;BME280;67223;51.102;5.882;2023-05-10T02:49:01;100764.66;;;13.29;90.93
78016;BME280;67223;51.102;5.882;2023-05-10T02:51:31;100770.88;;;13.20;91.03
78016;BME280;67223;51.102;5.882;2023-05-10T02:53:57;100762.00;;;13.19;90.89
78016;BME280;67223;51.102;5.882;2023-05-10T02:56:31;100771.16;;;13.17;91.15
78016;BME280;67223;51.102;5.882;2023-05-10T02:58:58;100761.81;;;13.21;90.53
78016;BME280;67223;51.102;5.882;2023-05-10T03:03:59;100759.84;;;13.04;91.16
78016;BME280;67223;51.102;5.882;2023-05-10T03:06:24;100765.34;;;12.92;90.79
78016;BME280;67223;51.102;5.882;2023-05-10T03:08:50;100762.78;;;13.10;90.91
78016;BME280;67223;51.102;5.882;2023-05-10T03:17:25;100772.69;;;12.90;90.36
78016;BME280;67223;51.102;5.882;2023-05-10T03:20:07;100771.69;;;12.91;90.42
78016;BME280;67223;51.102;5.882;2023-05-10T03:22:37;100777.22;;;13.09;90.06
78016;BME280;67223;51.102;5.882;2023-05-10T03:25:07;100784.41;;;12.99;89.95
78016;BME280;67223;51.102;5.882;2023-05-10T03:27:36;100787.09;;;12.99;89.84
78016;BME280;67223;51.102;5.882;2023-05-10T03:30:05;100786.09;;;12.81;90.00
78016;BME280;67223;51.102;5.882;2023-05-10T03:32:31;100783.00;;;12.95;90.04
78016;BME280;67223;51.102;5.882;2023-05-10T03:34:59;100791.06;;;12.95;89.49
78016;BME280;67223;51.102;5.882;2023-05-10T03:37:24;100785.09;;;12.72;89.75
78016;BME280;67223;51.102;5.882;2023-05-10T03:39:50;100790.19;;;12.85;90.01
78016;BME280;67223;51.102;5.882;2023-05-10T03:42:15;100795.13;;;12.89;90.13
78016;BME280;67223;51.102;5.882;2023-05-10T03:44:43;100790.34;;;12.83;90.09
78016;BME280;67223;51.102;5.882;2023-05-10T03:47:08;100783.13;;;12.74;90.23
78016;BME280;67223;51.102;5.882;2023-05-10T03:49:34;100785.53;;;12.77;90.21
78016;BME280;67223;51.102;5.882;2023-05-10T03:51:59;100784.00;;;12.84;89.59
78016;BME280;67223;51.102;5.882;2023-05-10T03:54:24;100788.06;;;12.88;89.79
78016;BME280;67223;51.102;5.882;2023-05-10T03:56:50;100789.34;;;12.75;89.82
78016;BME280;67223;51.102;5.882;2023-05-10T03:59:16;100798.50;;;12.72;89.61
78016;BME280;67223;51.102;5.882;2023-05-10T04:01:41;100795.53;;;12.75;89.84
78016;BME280;67223;51.102;5.882;2023-05-10T04:04:07;100789.75;;;12.70;89.58
78016;BME280;67223;51.102;5.882;2023-05-10T04:06:32;100800.88;;;12.75;89.98
78016;BME280;67223;51.102;5.882;2023-05-10T04:08:58;100792.72;;;12.77;89.87
78016;BME280;67223;51.102;5.882;2023-05-10T04:11:25;100807.38;;;12.63;89.79
78016;BME280;67223;51.102;5.882;2023-05-10T04:13:51;100801.31;;;12.80;89.46
78016;BME280;67223;51.102;5.882;2023-05-10T04:16:17;100801.31;;;12.80;89.44
78016;BME280;67223;51.102;5.882;2023-05-10T04:18:42;100800.44;;;12.70;89.79
78016;BME280;67223;51.102;5.882;2023-05-10T04:21:14;100805.53;;;12.54;90.13
78016;BME280;67223;51.102;5.882;2023-05-10T04:23:40;100802.44;;;12.68;89.79
78016;BME280;67223;51.102;5.882;2023-05-10T04:26:06;100791.44;;;12.62;90.02
78016;BME280;67223;51.102;5.882;2023-05-10T04:28:31;100800.63;;;12.69;90.27
78016;BME280;67223;51.102;5.882;2023-05-10T04:31:08;100797.94;;;12.69;89.97
78016;BME280;67223;51.102;5.882;2023-05-10T04:33:34;100797.81;;;12.80;90.49
78016;BME280;67223;51.102;5.882;2023-05-10T04:36:00;100803.31;;;12.78;90.24
78016;BME280;67223;51.102;5.882;2023-05-10T04:38:26;100801.91;;;12.74;90.34
78016;BME280;67223;51.102;5.882;2023-05-10T04:40:52;100808.66;;;12.78;90.59
78016;BME280;67223;51.102;5.882;2023-05-10T04:43:18;100807.25;;;13.03;90.93
78016;BME280;67223;51.102;5.882;2023-05-10T04:45:44;100804.84;;;13.00;90.92
78016;BME280;67223;51.102;5.882;2023-05-10T04:48:09;100805.13;;;12.97;91.16
78016;BME280;67223;51.102;5.882;2023-05-10T04:50:34;100808.50;;;12.70;91.04
78016;BME280;67223;51.102;5.882;2023-05-10T04:53:00;100808.66;;;12.98;90.60
78016;BME280;67223;51.102;5.882;2023-05-10T04:55:26;100808.13;;;12.94;90.66
78016;BME280;67223;51.102;5.882;2023-05-10T04:57:52;100814.16;;;13.06;90.82
78016;BME280;67223;51.102;5.882;2023-05-10T05:00:18;100816.31;;;13.12;90.57
78016;BME280;67223;51.102;5.882;2023-05-10T05:02:44;100816.28;;;12.92;90.34
78016;BME280;67223;51.102;5.882;2023-05-10T05:05:11;100817.25;;;12.91;90.68
78016;BME280;67223;51.102;5.882;2023-05-10T05:07:37;100821.09;;;12.89;90.12
78016;BME280;67223;51.102;5.882;2023-05-10T05:10:07;100824.19;;;12.84;90.60
78016;BME280;67223;51.102;5.882;2023-05-10T05:12:32;100823.06;;;12.87;90.70
78016;BME280;67223;51.102;5.882;2023-05-10T05:14:58;100826.28;;;12.81;90.39
78016;BME280;67223;51.102;5.882;2023-05-10T05:17:23;100835.19;;;13.01;91.15
78016;BME280;67223;51.102;5.882;2023-05-10T05:19:49;100822.91;;;12.98;90.71
78016;BME280;67223;51.102;5.882;2023-05-10T05:22:14;100832.59;;;12.70;90.38
78016;BME280;67223;51.102;5.882;2023-05-10T05:24:40;100833.88;;;12.66;90.62
78016;BME280;67223;51.102;5.882;2023-05-10T05:27:05;100832.78;;;12.78;90.84
78016;BME280;67223;51.102;5.882;2023-05-10T05:29:31;100832.22;;;12.75;90.36
78016;BME280;67223;51.102;5.882;2023-05-10T05:31:57;100831.69;;;13.10;90.81
78016;BME280;67223;51.102;5.882;2023-05-10T05:34:22;100836.88;;;12.92;90.37
78016;BME280;67223;51.102;5.882;2023-05-10T05:36:48;100840.72;;;12.99;90.26
78016;BME280;67223;51.102;5.882;2023-05-10T05:39:14;100851.00;;;12.84;90.06
78016;BME280;67223;51.102;5.882;2023-05-10T05:41:39;100852.41;;;12.88;90.47
78016;BME280;67223;51.102;5.882;2023-05-10T05:44:05;100852.97;;;13.02;90.24
78016;BME280;67223;51.102;5.882;2023-05-10T05:46:30;100855.78;;;12.90;90.07
78016;BME280;67223;51.102;5.882;2023-05-10T05:48:56;100858.06;;;12.95;90.28
78016;BME280;67223;51.102;5.882;2023-05-10T05:51:22;100854.78;;;12.82;90.09
78016;BME280;67223;51.102;5.882;2023-05-10T05:53:47;100871.19;;;12.98;90.46
78016;BME280;67223;51.102;5.882;2023-05-10T05:56:12;100859.03;;;12.84;89.96
78016;BME280;67223;51.102;5.882;2023-05-10T05:58:38;100863.97;;;12.79;89.82
78016;BME280;67223;51.102;5.882;2023-05-10T06:01:04;100867.06;;;12.84;89.92
78016;BME280;67223;51.102;5.882;2023-05-10T06:03:29;100864.81;;;12.89;89.71
78016;BME280;67223;51.102;5.882;2023-05-10T06:05:54;100872.53;;;12.73;89.51
78016;BME280;67223;51.102;5.882;2023-05-10T06:08:20;100869.88;;;12.83;89.95
78016;BME280;67223;51.102;5.882;2023-05-10T06:10:45;100875.97;;;12.85;90.19
78016;BME280;67223;51.102;5.882;2023-05-10T06:13:14;100876.66;;;12.87;89.70
78016;BME280;67223;51.102;5.882;2023-05-10T06:15:39;100868.91;;;13.03;89.59
78016;BME280;67223;51.102;5.882;2023-05-10T06:18:05;100875.56;;;12.99;89.15
78016;BME280;67223;51.102;5.882;2023-05-10T06:20:31;100887.41;;;13.06;89.14
78016;BME280;67223;51.102;5.882;2023-05-10T06:22:57;100883.66;;;13.28;89.15
78016;BME280;67223;51.102;5.882;2023-05-10T06:25:23;100873.91;;;13.17;89.03
78016;BME280;67223;51.102;5.882;2023-05-10T06:27:48;100876.44;;;13.38;88.86
78016;BME280;67223;51.102;5.882;2023-05-10T06:30:14;100878.69;;;13.43;89.00
78016;BME280;67223;51.102;5.882;2023-05-10T06:32:41;100872.91;;;13.57;88.77
78016;BME280;67223;51.102;5.882;2023-05-10T06:35:09;100881.75;;;13.76;88.31
78016;BME280;67223;51.102;5.882;2023-05-10T06:37:34;100890.34;;;13.99;88.17
78016;BME280;67223;51.102;5.882;2023-05-10T06:40:00;100891.91;;;13.92;88.01
78016;BME280;67223;51.102;5.882;2023-05-10T06:42:25;100891.84;;;14.11;87.39
78016;BME280;67223;51.102;5.882;2023-05-10T06:44:52;100895.06;;;14.15;86.44
78016;BME280;67223;51.102;5.882;2023-05-10T06:47:17;100896.88;;;14.43;86.33
78016;BME280;67223;51.102;5.882;2023-05-10T06:49:43;100901.66;;;14.40;85.76
78016;BME280;67223;51.102;5.882;2023-05-10T06:52:08;100898.25;;;14.75;84.13
78016;BME280;67223;51.102;5.882;2023-05-10T06:54:34;100905.50;;;14.64;84.72
78016;BME280;67223;51.102;5.882;2023-05-10T06:56:59;100904.47;;;15.02;84.66
78016;BME280;67223;51.102;5.882;2023-05-10T06:59:24;100908.50;;;14.61;84.24
78016;BME280;67223;51.102;5.882;2023-05-10T07:01:50;100907.44;;;14.54;82.31
78016;BME280;67223;51.102;5.882;2023-05-10T07:04:16;100912.53;;;14.75;82.72
78016;BME280;67223;51.102;5.882;2023-05-10T07:06:42;100918.56;;;14.59;82.14
78016;BME280;67223;51.102;5.882;2023-05-10T07:09:08;100928.69;;;14.38;81.96
78016;BME280;67223;51.102;5.882;2023-05-10T07:11:34;100922.56;;;14.46;81.33
78016;BME280;67223;51.102;5.882;2023-05-10T07:13:59;100925.72;;;14.41;81.31
78016;BME280;67223;51.102;5.882;2023-05-10T07:16:25;100933.47;;;14.35;80.36
78016;BME280;67223;51.102;5.882;2023-05-10T07:18:51;100939.28;;;14.40;80.95
78016;BME280;67223;51.102;5.882;2023-05-10T07:21:18;100940.59;;;14.16;79.74
78016;BME280;67223;51.102;5.882;2023-05-10T07:23:44;100941.06;;;14.02;79.52
78016;BME280;67223;51.102;5.882;2023-05-10T07:26:09;100940.63;;;14.07;79.79
78016;BME280;67223;51.102;5.882;2023-05-10T07:28:36;100947.22;;;14.41;79.07
78016;BME280;67223;51.102;5.882;2023-05-10T07:31:02;100937.34;;;14.22;79.04
78016;BME280;67223;51.102;5.882;2023-05-10T07:33:28;100953.44;;;14.32;79.60
78016;BME280;67223;51.102;5.882;2023-05-10T07:35:53;100957.59;;;13.98;80.34
78016;BME280;67223;51.102;5.882;2023-05-10T07:38:19;100951.50;;;14.05;81.75
78016;BME280;67223;51.102;5.882;2023-05-10T07:40:44;100960.50;;;14.33;80.34
78016;BME280;67223;51.102;5.882;2023-05-10T07:43:10;100961.00;;;14.09;81.00
78016;BME280;67223;51.102;5.882;2023-05-10T07:45:35;100961.13;;;13.98;81.08
78016;BME280;67223;51.102;5.882;2023-05-10T07:48:01;100957.34;;;13.82;81.51
78016;BME280;67223;51.102;5.882;2023-05-10T07:50:27;100963.41;;;13.93;81.94
78016;BME280;67223;51.102;5.882;2023-05-10T07:52:52;100965.94;;;13.95;81.95
78016;BME280;67223;51.102;5.882;2023-05-10T07:55:18;100965.38;;;14.01;82.28
78016;BME280;67223;51.102;5.882;2023-05-10T07:57:44;100961.16;;;13.89;82.66
78016;BME280;67223;51.102;5.882;2023-05-10T08:00:12;100967.94;;;13.73;82.41
78016;BME280;67223;51.102;5.882;2023-05-10T08:02:38;100968.78;;;13.84;81.85
78016;BME280;67223;51.102;5.882;2023-05-10T08:05:04;100971.28;;;13.95;81.89
78016;BME280;67223;51.102;5.882;2023-05-10T08:07:30;100973.16;;;14.04;82.63
78016;BME280;67223;51.102;5.882;2023-05-10T08:09:56;100980.22;;;13.86;82.46
78016;BME280;67223;51.102;5.882;2023-05-10T08:12:21;100977.81;;;13.92;82.63
78016;BME280;67223;51.102;5.882;2023-05-10T08:14:47;100980.34;;;14.03;83.05
78016;BME280;67223;51.102;5.882;2023-05-10T08:17:15;100979.78;;;13.90;83.40
78016;BME280;67223;51.102;5.882;2023-05-10T08:19:41;100989.13;;;13.76;82.68
78016;BME280;67223;51.102;5.882;2023-05-10T08:22:07;100994.44;;;14.15;83.23
78016;BME280;67223;51.102;5.882;2023-05-10T08:24:32;100991.63;;;14.26;82.74
78016;BME280;67223;51.102;5.882;2023-05-10T08:26:59;100994.47;;;14.05;82.39
78016;BME280;67223;51.102;5.882;2023-05-10T08:29:26;100994.66;;;13.94;82.34
78016;BME280;67223;51.102;5.882;2023-05-10T08:31:51;100998.69;;;14.27;82.85
78016;BME280;67223;51.102;5.882;2023-05-10T08:34:16;100997.56;;;14.20;82.33
78016;BME280;67223;51.102;5.882;2023-05-10T08:36:42;100994.88;;;14.20;82.48
78016;BME280;67223;51.102;5.882;2023-05-10T08:39:07;100992.06;;;14.12;81.49
78016;BME280;67223;51.102;5.882;2023-05-10T08:41:33;101005.63;;;14.10;82.34
78016;BME280;67223;51.102;5.882;2023-05-10T08:44:04;100999.56;;;14.08;82.62
78016;BME280;67223;51.102;5.882;2023-05-10T08:46:33;101002.53;;;14.25;80.90
78016;BME280;67223;51.102;5.882;2023-05-10T08:49:02;101006.03;;;14.15;81.22
78016;BME280;67223;51.102;5.882;2023-05-10T08:51:31;101011.84;;;14.11;81.40
78016;BME280;67223;51.102;5.882;2023-05-10T08:54:01;101015.66;;;14.18;81.06
78016;BME280;67223;51.102;5.882;2023-05-10T08:56:28;101019.59;;;14.33;81.66
78016;BME280;67223;51.102;5.882;2023-05-10T08:58:53;101017.38;;;14.38;81.43
78016;BME280;67223;51.102;5.882;2023-05-10T09:01:21;101030.94;;;14.37;81.12
78016;BME280;67223;51.102;5.882;2023-05-10T09:03:46;101028.66;;;14.42;81.28
78016;BME280;67223;51.102;5.882;2023-05-10T09:06:13;101026.34;;;14.56;81.02
78016;BME280;67223;51.102;5.882;2023-05-10T09:08:41;101033.44;;;14.57;80.24
78016;BME280;67223;51.102;5.882;2023-05-10T09:11:07;101038.25;;;14.63;80.04
78016;BME280;67223;51.102;5.882;2023-05-10T09:13:35;101024.53;;;14.57;79.73
78016;BME280;67223;51.102;5.882;2023-05-10T09:16:01;101031.56;;;14.68;79.11
78016;BME280;67223;51.102;5.882;2023-05-10T09:18:27;101032.66;;;15.12;79.40
78016;BME280;67223;51.102;5.882;2023-05-10T09:20:54;101035.75;;;15.17;77.89
78016;BME280;67223;51.102;5.882;2023-05-10T09:23:19;101032.91;;;15.18;78.02
78016;BME280;67223;51.102;5.882;2023-05-10T09:25:45;101041.00;;;15.18;78.45
78016;BME280;67223;51.102;5.882;2023-05-10T09:28:11;101046.31;;;15.28;78.29
78016;BME280;67223;51.102;5.882;2023-05-10T09:30:37;101043.56;;;15.10;78.24
78016;BME280;67223;51.102;5.882;2023-05-10T09:33:03;101046.47;;;14.99;78.64
78016;BME280;67223;51.102;5.882;2023-05-10T09:35:30;101043.84;;;15.34;77.32
78016;BME280;67223;51.102;5.882;2023-05-10T09:37:59;101044.56;;;15.36;76.38
78016;BME280;67223;51.102;5.882;2023-05-10T09:40:26;101048.56;;;15.50;75.81
78016;BME280;67223;51.102;5.882;2023-05-10T09:43:01;101045.78;;;15.52;75.58
78016;BME280;67223;51.102;5.882;2023-05-10T09:45:28;101048.03;;;15.46;76.21
78016;BME280;67223;51.102;5.882;2023-05-10T09:47:54;101050.84;;;15.55;75.24
78016;BME280;67223;51.102;5.882;2023-05-10T09:50:20;101044.88;;;15.33;74.92
78016;BME280;67223;51.102;5.882;2023-05-10T09:52:54;101050.66;;;15.38;75.61
78016;BME280;67223;51.102;5.882;2023-05-10T09:55:24;101048.84;;;15.57;75.48
78016;BME280;67223;51.102;5.882;2023-05-10T09:57:59;101055.03;;;15.67;74.87
78016;BME280;67223;51.102;5.882;2023-05-10T10:00:26;101044.78;;;15.70;75.46
78016;BME280;67223;51.102;5.882;2023-05-10T10:02:56;101058.09;;;15.72;75.12
78016;BME280;67223;51.102;5.882;2023-05-10T10:05:41;101058.34;;;15.78;74.48
78016;BME280;67223;51.102;5.882;2023-05-10T10:08:10;101051.47;;;15.66;73.19
78016;BME280;67223;51.102;5.882;2023-05-10T10:10:37;101054.09;;;15.76;73.91
78016;BME280;67223;51.102;5.882;2023-05-10T10:13:04;101053.81;;;15.79;73.55
78016;BME280;67223;51.102;5.882;2023-05-10T10:15:30;101049.88;;;15.46;74.91
78016;BME280;67223;51.102;5.882;2023-05-10T10:17:56;101061.31;;;15.58;74.73
78016;BME280;67223;51.102;5.882;2023-05-10T10:20:22;101063.88;;;15.49;75.05
78016;BME280;67223;51.102;5.882;2023-05-10T10:22:49;101060.78;;;15.54;75.76
78016;BME280;67223;51.102;5.882;2023-05-10T10:25:16;101052.16;;;15.23;76.08
78016;BME280;67223;51.102;5.882;2023-05-10T10:30:35;101064.31;;;15.27;76.65
78016;BME280;67223;51.102;5.882;2023-05-10T10:33:33;101066.09;;;15.64;76.15
78016;BME280;67223;51.102;5.882;2023-05-10T10:36:02;101069.50;;;15.83;76.82
78016;BME280;67223;51.102;5.882;2023-05-10T10:41:35;101065.50;;;16.05;74.56
78016;BME280;67223;51.102;5.882;2023-05-10T10:47:02;101069.13;;;15.96;73.80
78016;BME280;67223;51.102;5.882;2023-05-10T10:49:43;101063.50;;;16.07;73.78
78016;BME280;67223;51.102;5.882;2023-05-10T10:52:27;101062.91;;;16.57;73.04
78016;BME280;67223;51.102;5.882;2023-05-10T10:57:55;101066.34;;;17.27;70.63
78016;BME280;67223;51.102;5.882;2023-05-10T11:02:54;101058.56;;;17.66;70.22
78016;BME280;67223;51.102;5.882;2023-05-10T11:05:40;101062.78;;;17.60;68.46
78016;BME280;67223;51.102;5.882;2023-05-10T11:08:15;101068.66;;;17.13;69.96
78016;BME280;67223;51.102;5.882;2023-05-10T11:11:05;101076.00;;;16.52;70.29
78016;BME280;67223;51.102;5.882;2023-05-10T11:13:45;101073.97;;;16.71;69.76
78016;BME280;67223;51.102;5.882;2023-05-10T11:16:24;101073.31;;;16.52;71.24
78016;BME280;67223;51.102;5.882;2023-05-10T11:19:05;101071.81;;;16.75;71.02
78016;BME280;67223;51.102;5.882;2023-05-10T11:21:33;101074.25;;;16.43;70.63
78016;BME280;67223;51.102;5.882;2023-05-10T11:24:00;101066.19;;;16.94;69.85
78016;BME280;67223;51.102;5.882;2023-05-10T11:26:34;101072.88;;;16.82;69.73
78016;BME280;67223;51.102;5.882;2023-05-10T11:29:00;101067.94;;;17.03;70.06
78016;BME280;67223;51.102;5.882;2023-05-10T11:31:27;101080.63;;;16.85;69.43
78016;BME280;67223;51.102;5.882;2023-05-10T11:33:55;101075.66;;;16.98;69.90
78016;BME280;67223;51.102;5.882;2023-05-10T11:36:24;101083.59;;;16.74;70.38
78016;BME280;67223;51.102;5.882;2023-05-10T11:38:50;101080.47;;;16.61;70.58
78016;BME280;67223;51.102;5.882;2023-05-10T11:41:17;101086.53;;;16.89;70.53
78016;BME280;67223;51.102;5.882;2023-05-10T11:43:45;101065.75;;;17.07;69.12
78016;BME280;67223;51.102;5.882;2023-05-10T11:46:13;101069.63;;;17.46;68.42
78016;BME280;67223;51.102;5.882;2023-05-10T11:48:39;101078.06;;;17.43;68.55
78016;BME280;67223;51.102;5.882;2023-05-10T11:51:07;101072.88;;;17.16;67.84
78016;BME280;67223;51.102;5.882;2023-05-10T11:53:33;101076.13;;;17.61;68.47
78016;BME280;67223;51.102;5.882;2023-05-10T11:56:06;101075.69;;;17.06;68.30
78016;BME280;67223;51.102;5.882;2023-05-10T11:58:32;101065.84;;;17.65;67.73
78016;BME280;67223;51.102;5.882;2023-05-10T12:01:04;101072.34;;;17.54;67.62
78016;BME280;67223;51.102;5.882;2023-05-10T12:03:30;101071.31;;;18.14;67.93
78016;BME280;67223;51.102;5.882;2023-05-10T12:05:57;101064.41;;;18.35;65.67
78016;BME280;67223;51.102;5.882;2023-05-10T12:08:25;101076.53;;;17.83;66.57
78016;BME280;67223;51.102;5.882;2023-05-10T12:10:53;101073.59;;;17.26;66.65
78016;BME280;67223;51.102;5.882;2023-05-10T12:13:19;101073.81;;;17.83;66.52
78016;BME280;67223;51.102;5.882;2023-05-10T12:15:45;101075.03;;;18.21;66.00
78016;BME280;67223;51.102;5.882;2023-05-10T12:18:12;101074.19;;;18.69;65.99
78016;BME280;67223;51.102;5.882;2023-05-10T12:20:39;101084.47;;;18.89;64.04
78016;BME280;67223;51.102;5.882;2023-05-10T12:23:05;101076.72;;;18.86;63.04
78016;BME280;67223;51.102;5.882;2023-05-10T12:25:35;101076.19;;;18.83;63.47
78016;BME280;67223;51.102;5.882;2023-05-10T12:28:06;101079.97;;;18.66;64.17
78016;BME280;67223;51.102;5.882;2023-05-10T12:30:33;101080.59;;;18.92;63.35
78016;BME280;67223;51.102;5.882;2023-05-10T12:33:01;101075.47;;;19.05;63.69
78016;BME280;67223;51.102;5.882;2023-05-10T12:35:31;101066.88;;;18.93;63.24
78016;BME280;67223;51.102;5.882;2023-05-10T12:37:57;101076.28;;;19.14;62.83
78016;BME280;67223;51.102;5.882;2023-05-10T12:40:23;101082.97;;;19.42;61.19
78016;BME280;67223;51.102;5.882;2023-05-10T12:42:48;101085.03;;;19.32;60.86
78016;BME280;67223;51.102;5.882;2023-05-10T12:45:14;101088.56;;;18.85;60.94
78016;BME280;67223;51.102;5.882;2023-05-10T12:47:40;101081.00;;;18.57;62.17
78016;BME280;67223;51.102;5.882;2023-05-10T12:50:06;101085.69;;;18.30;63.29
78016;BME280;67223;51.102;5.882;2023-05-10T12:52:31;101087.34;;;17.91;63.57
78016;BME280;67223;51.102;5.882;2023-05-10T12:54:58;101090.38;;;17.96;64.34
78016;BME280;67223;51.102;5.882;2023-05-10T12:57:24;101094.31;;;18.58;63.71
78016;BME280;67223;51.102;5.882;2023-05-10T12:59:49;101099.56;;;18.76;61.35
78016;BME280;67223;51.102;5.882;2023-05-10T13:02:15;101097.88;;;18.67;61.84
78016;BME280;67223;51.102;5.882;2023-05-10T13:04:43;101107.84;;;18.42;62.29
78016;BME280;67223;51.102;5.882;2023-05-10T13:07:09;101103.09;;;18.52;63.31
78016;BME280;67223;51.102;5.882;2023-05-10T13:09:35;101103.75;;;17.97;63.63
78016;BME280;67223;51.102;5.882;2023-05-10T13:12:00;101108.16;;;18.06;63.50
78016;BME280;67223;51.102;5.882;2023-05-10T13:14:26;101100.88;;;18.23;63.00
78016;BME280;67223;51.102;5.882;2023-05-10T13:16:52;101108.34;;;18.13;63.01
78016;BME280;67223;51.102;5.882;2023-05-10T13:19:20;101111.56;;;18.33;62.66
78016;BME280;67223;51.102;5.882;2023-05-10T13:21:46;101111.81;;;17.89;63.00
78016;BME280;67223;51.102;5.882;2023-05-10T13:24:12;101116.28;;;18.63;63.38
78016;BME280;67223;51.102;5.882;2023-05-10T13:26:41;101109.88;;;18.80;62.78